sensor_id;sensor_type;location;lat;lon;timestamp;P1;durP1;ratioP1;P2;durP2;ratioP2
1376;SDS011;682;52.502;13.488;2023-04-16T00:00:49;19.83;;;17.90;;
1376;SDS011;682;52.502;13.488;2023-04-16T00:03:19;19.37;;;17.57;;
1376;SDS011;682;52.502;13.488;2023-04-16T00:05:46;19.10;;;17.37;;
1376;SDS011;682;52.502;13.488;2023-04-16T00:08:15;18.90;;;17.00;;
1376;SDS011;682;52.502;13.488;2023-04-16T00:10:42;20.70;;;18.60;;
1376;SDS011;682;52.502;13.488;2023-04-16T00:13:10;18.63;;;16.90;;
1376;SDS011;682;52.502;13.488;2023-04-16T00:15:37;20.30;;;18.40;;
1376;SDS011;682;52.502;13.488;2023-04-16T00:18:05;19.67;;;17.97;;
1376;SDS011;682;52.502;13.488;2023-04-16T00:20:33;20.37;;;18.50;;
1376;SDS011;682;52.502;13.488;2023-04-16T00:23:00;20.07;;;18.27;;
1376;SDS011;682;52.502;13.488;2023-04-16T00:25:30;21.77;;;19.80;;
1376;SDS011;682;52.502;13.488;2023-04-16T00:27:59;21.00;;;19.00;;
1376;SDS011;682;52.502;13.488;2023-04-16T00:30:25;19.23;;;17.47;;
1376;SDS011;682;52.502;13.488;2023-04-16T00:32:53;20.10;;;18.20;;
1376;SDS011;682;52.502;13.488;2023-04-16T00:35:20;22.13;;;19.93;;
1376;SDS011;682;52.502;13.488;2023-04-16T00:37:48;19.80;;;18.00;;
1376;SDS011;682;52.502;13.488;2023-04-16T00:40:15;22.07;;;19.93;;
1376;SDS011;682;52.502;13.488;2023-04-16T00:42:42;21.40;;;19.40;;
1376;SDS011;682;52.502;13.488;2023-04-16T00:45:10;22.23;;;20.13;;
1376;SDS011;682;52.502;13.488;2023-04-16T00:47:37;20.50;;;18.70;;
1376;SDS011;682;52.502;13.488;2023-04-16T00:50:04;20.60;;;18.60;;
1376;SDS011;682;52.502;13.488;2023-04-16T00:52:32;22.17;;;19.97;;
1376;SDS011;682;52.502;13.488;2023-04-16T00:55:02;23.00;;;20.50;;
1376;SDS011;682;52.502;13.488;2023-04-16T00:57:29;20.53;;;18.63;;
1376;SDS011;682;52.502;13.488;2023-04-16T00:59:56;21.80;;;19.90;;
1376;SDS011;682;52.502;13.488;2023-04-16T01:02:24;22.07;;;19.90;;
1376;SDS011;682;52.502;13.488;2023-04-16T01:05:08;21.07;;;19.17;;
1376;SDS011;682;52.502;13.488;2023-04-16T01:07:51;22.00;;;19.90;;
1376;SDS011;682;52.502;13.488;2023-04-16T01:10:44;21.77;;;19.87;;
1376;SDS011;682;52.502;13.488;2023-04-16T01:13:33;23.23;;;20.93;;
1376;SDS011;682;52.502;13.488;2023-04-16T01:16:16;20.77;;;18.87;;
1376;SDS011;682;52.502;13.488;2023-04-16T01:18:56;22.17;;;19.97;;
1376;SDS011;682;52.502;13.488;2023-04-16T01:21:26;21.60;;;19.60;;
1376;SDS011;682;52.502;13.488;2023-04-16T01:24:09;23.90;;;21.60;;
1376;SDS011;682;52.502;13.488;2023-04-16T01:26:49;22.43;;;20.30;;
1376;SDS011;682;52.502;13.488;2023-04-16T01:29:49;22.93;;;20.83;;
1376;SDS011;682;52.502;13.488;2023-04-16T01:32:38;22.33;;;20.13;;
1376;SDS011;682;52.502;13.488;2023-04-16T01:35:21;22.33;;;20.23;;
1376;SDS011;682;52.502;13.488;2023-04-16T01:37:56;22.40;;;20.30;;
1376;SDS011;682;52.502;13.488;2023-04-16T01:40:54;24.03;;;21.43;;
1376;SDS011;682;52.502;13.488;2023-04-16T01:43:40;24.57;;;22.17;;
1376;SDS011;682;52.502;13.488;2023-04-16T01:46:49;23.00;;;20.83;;
1376;SDS011;682;52.502;13.488;2023-04-16T01:49:38;23.30;;;21.00;;
1376;SDS011;682;52.502;13.488;2023-04-16T01:52:54;22.27;;;20.27;;
1376;SDS011;682;52.502;13.488;2023-04-16T01:55:41;23.67;;;21.37;;
1376;SDS011;682;52.502;13.488;2023-04-16T01:58:51;23.60;;;21.40;;
1376;SDS011;682;52.502;13.488;2023-04-16T02:01:48;24.90;;;22.60;;
1376;SDS011;682;52.502;13.488;2023-04-16T02:04:54;23.37;;;21.13;;
1376;SDS011;682;52.502;13.488;2023-04-16T02:07:33;23.10;;;20.90;;
1376;SDS011;682;52.502;13.488;2023-04-16T02:10:13;24.23;;;21.83;;
1376;SDS011;682;52.502;13.488;2023-04-16T02:13:06;23.60;;;21.30;;
1376;SDS011;682;52.502;13.488;2023-04-16T02:15:52;24.03;;;21.73;;
1376;SDS011;682;52.502;13.488;2023-04-16T02:18:38;22.47;;;20.47;;
1376;SDS011;682;52.502;13.488;2023-04-16T02:21:22;24.33;;;22.00;;
1376;SDS011;682;52.502;13.488;2023-04-16T02:24:07;23.77;;;21.33;;
1376;SDS011;682;52.502;13.488;2023-04-16T02:26:47;23.27;;;21.07;;
1376;SDS011;682;52.502;13.488;2023-04-16T02:29:42;23.30;;;20.80;;
1376;SDS011;682;52.502;13.488;2023-04-16T02:32:28;22.80;;;20.63;;
1376;SDS011;682;52.502;13.488;2023-04-16T02:35:09;23.40;;;21.30;;
1376;SDS011;682;52.502;13.488;2023-04-16T02:38:02;23.17;;;20.97;;
1376;SDS011;682;52.502;13.488;2023-04-16T02:41:12;22.23;;;20.13;;
1376;SDS011;682;52.502;13.488;2023-04-16T02:43:54;22.13;;;20.03;;
1376;SDS011;682;52.502;13.488;2023-04-16T02:46:55;23.70;;;21.30;;
1376;SDS011;682;52.502;13.488;2023-04-16T02:49:43;23.10;;;20.80;;
1376;SDS011;682;52.502;13.488;2023-04-16T02:52:25;22.93;;;20.60;;
1376;SDS011;682;52.502;13.488;2023-04-16T02:54:55;23.43;;;21.23;;
1376;SDS011;682;52.502;13.488;2023-04-16T02:57:42;23.90;;;21.47;;
1376;SDS011;682;52.502;13.488;2023-04-16T03:00:26;24.70;;;22.30;;
1376;SDS011;682;52.502;13.488;2023-04-16T03:03:48;23.13;;;20.93;;
1376;SDS011;682;52.502;13.488;2023-04-16T03:06:57;23.17;;;20.90;;
1376;SDS011;682;52.502;13.488;2023-04-16T03:09:44;24.07;;;21.77;;
1376;SDS011;682;52.502;13.488;2023-04-16T03:12:42;23.90;;;21.40;;
1376;SDS011;682;52.502;13.488;2023-04-16T03:15:47;24.23;;;21.80;;
1376;SDS011;682;52.502;13.488;2023-04-16T03:18:28;26.87;;;24.30;;
1376;SDS011;682;52.502;13.488;2023-04-16T03:21:22;28.87;;;25.80;;
1376;SDS011;682;52.502;13.488;2023-04-16T03:24:31;28.27;;;25.27;;
1376;SDS011;682;52.502;13.488;2023-04-16T03:27:12;29.17;;;26.13;;
1376;SDS011;682;52.502;13.488;2023-04-16T03:30:09;27.73;;;24.90;;
1376;SDS011;682;52.502;13.488;2023-04-16T03:33:31;28.93;;;26.03;;
1376;SDS011;682;52.502;13.488;2023-04-16T03:36:14;29.63;;;26.63;;
1376;SDS011;682;52.502;13.488;2023-04-16T03:39:47;29.97;;;26.90;;
1376;SDS011;682;52.502;13.488;2023-04-16T03:43:27;29.93;;;26.80;;
1376;SDS011;682;52.502;13.488;2023-04-16T03:46:08;28.13;;;25.43;;
1376;SDS011;682;52.502;13.488;2023-04-16T03:48:50;29.87;;;26.77;;
1376;SDS011;682;52.502;13.488;2023-04-16T03:51:44;29.47;;;26.53;;
1376;SDS011;682;52.502;13.488;2023-04-16T04:07:31;28.97;;;25.83;;
1376;SDS011;682;52.502;13.488;2023-04-16T04:09:58;29.60;;;25.67;;
1376;SDS011;682;52.502;13.488;2023-04-16T04:12:25;30.03;;;26.50;;
1376;SDS011;682;52.502;13.488;2023-04-16T04:14:54;29.63;;;26.50;;
1376;SDS011;682;52.502;13.488;2023-04-16T04:17:21;28.80;;;25.77;;
1376;SDS011;682;52.502;13.488;2023-04-16T04:19:50;30.40;;;27.30;;
1376;SDS011;682;52.502;13.488;2023-04-16T04:22:18;33.10;;;26.80;;
1376;SDS011;682;52.502;13.488;2023-04-16T04:24:48;29.77;;;26.57;;
1376;SDS011;682;52.502;13.488;2023-04-16T04:27:15;28.40;;;25.30;;
1376;SDS011;682;52.502;13.488;2023-04-16T04:29:42;28.67;;;25.67;;
1376;SDS011;682;52.502;13.488;2023-04-16T04:32:09;28.63;;;25.70;;
1376;SDS011;682;52.502;13.488;2023-04-16T04:34:36;29.67;;;26.53;;
1376;SDS011;682;52.502;13.488;2023-04-16T04:37:03;30.53;;;26.13;;
1376;SDS011;682;52.502;13.488;2023-04-16T04:39:30;28.57;;;25.73;;
1376;SDS011;682;52.502;13.488;2023-04-16T04:41:58;28.60;;;25.60;;
1376;SDS011;682;52.502;13.488;2023-04-16T04:44:27;27.60;;;24.70;;
1376;SDS011;682;52.502;13.488;2023-04-16T04:46:54;27.57;;;24.77;;
1376;SDS011;682;52.502;13.488;2023-04-16T04:49:26;27.70;;;23.80;;
1376;SDS011;682;52.502;13.488;2023-04-16T04:51:54;28.33;;;25.40;;
1376;SDS011;682;52.502;13.488;2023-04-16T04:54:21;27.10;;;24.50;;
1376;SDS011;682;52.502;13.488;2023-04-16T04:56:48;27.43;;;24.33;;
1376;SDS011;682;52.502;13.488;2023-04-16T04:59:18;29.40;;;26.30;;
1376;SDS011;682;52.502;13.488;2023-04-16T05:01:46;28.50;;;25.40;;
1376;SDS011;682;52.502;13.488;2023-04-16T05:04:13;29.13;;;26.03;;
1376;SDS011;682;52.502;13.488;2023-04-16T05:06:41;27.43;;;24.53;;
1376;SDS011;682;52.502;13.488;2023-04-16T05:09:08;29.73;;;26.03;;
1376;SDS011;682;52.502;13.488;2023-04-16T05:11:36;32.07;;;27.17;;
1376;SDS011;682;52.502;13.488;2023-04-16T05:14:03;28.20;;;25.20;;
1376;SDS011;682;52.502;13.488;2023-04-16T05:16:34;29.60;;;24.70;;
1376;SDS011;682;52.502;13.488;2023-04-16T05:19:03;28.37;;;25.37;;
1376;SDS011;682;52.502;13.488;2023-04-16T05:21:30;30.03;;;26.33;;
1376;SDS011;682;52.502;13.488;2023-04-16T05:23:57;30.90;;;25.73;;
1376;SDS011;682;52.502;13.488;2023-04-16T05:26:24;28.63;;;25.43;;
1376;SDS011;682;52.502;13.488;2023-04-16T05:28:51;32.37;;;26.57;;
1376;SDS011;682;52.502;13.488;2023-04-16T05:31:19;31.40;;;28.10;;
1376;SDS011;682;52.502;13.488;2023-04-16T05:33:47;27.20;;;24.30;;
1376;SDS011;682;52.502;13.488;2023-04-16T05:36:14;28.93;;;25.47;;
1376;SDS011;682;52.502;13.488;2023-04-16T05:38:42;30.20;;;25.90;;
1376;SDS011;682;52.502;13.488;2023-04-16T05:41:10;31.97;;;26.53;;
1376;SDS011;682;52.502;13.488;2023-04-16T05:43:37;33.50;;;25.30;;
1376;SDS011;682;52.502;13.488;2023-04-16T05:46:05;28.97;;;24.77;;
1376;SDS011;682;52.502;13.488;2023-04-16T05:48:32;28.63;;;25.03;;
1376;SDS011;682;52.502;13.488;2023-04-16T05:51:00;28.70;;;24.93;;
1376;SDS011;682;52.502;13.488;2023-04-16T05:53:27;30.40;;;24.43;;
1376;SDS011;682;52.502;13.488;2023-04-16T05:55:54;30.53;;;26.50;;
1376;SDS011;682;52.502;13.488;2023-04-16T05:58:21;27.03;;;23.90;;
1376;SDS011;682;52.502;13.488;2023-04-16T06:00:48;29.80;;;24.37;;
1376;SDS011;682;52.502;13.488;2023-04-16T06:03:15;30.40;;;23.90;;
1376;SDS011;682;52.502;13.488;2023-04-16T06:05:42;27.53;;;24.63;;
1376;SDS011;682;52.502;13.488;2023-04-16T06:08:11;28.23;;;23.13;;
1376;SDS011;682;52.502;13.488;2023-04-16T06:10:38;28.90;;;24.03;;
1376;SDS011;682;52.502;13.488;2023-04-16T06:13:06;25.30;;;21.90;;
1376;SDS011;682;52.502;13.488;2023-04-16T06:15:34;28.57;;;23.33;;
1376;SDS011;682;52.502;13.488;2023-04-16T06:18:02;25.30;;;22.60;;
1376;SDS011;682;52.502;13.488;2023-04-16T06:20:29;28.67;;;22.33;;
1376;SDS011;682;52.502;13.488;2023-04-16T06:22:56;24.37;;;21.40;;
1376;SDS011;682;52.502;13.488;2023-04-16T06:25:25;25.47;;;22.67;;
1376;SDS011;682;52.502;13.488;2023-04-16T06:27:52;24.87;;;22.27;;
1376;SDS011;682;52.502;13.488;2023-04-16T06:30:20;24.67;;;22.07;;
1376;SDS011;682;52.502;13.488;2023-04-16T06:32:47;24.50;;;21.93;;
1376;SDS011;682;52.502;13.488;2023-04-16T06:35:15;26.60;;;23.00;;
1376;SDS011;682;52.502;13.488;2023-04-16T06:37:45;25.83;;;22.90;;
1376;SDS011;682;52.502;13.488;2023-04-16T06:40:12;26.83;;;22.50;;
1376;SDS011;682;52.502;13.488;2023-04-16T06:42:40;27.43;;;24.63;;
1376;SDS011;682;52.502;13.488;2023-04-16T06:45:08;25.80;;;23.10;;
1376;SDS011;682;52.502;13.488;2023-04-16T06:47:35;27.63;;;23.80;;
1376;SDS011;682;52.502;13.488;2023-04-16T06:50:03;26.63;;;22.00;;
1376;SDS011;682;52.502;13.488;2023-04-16T06:52:31;25.43;;;22.73;;
1376;SDS011;682;52.502;13.488;2023-04-16T06:54:58;30.63;;;24.33;;
1376;SDS011;682;52.502;13.488;2023-04-16T06:57:25;28.20;;;23.73;;
1376;SDS011;682;52.502;13.488;2023-04-16T06:59:53;25.10;;;22.20;;
1376;SDS011;682;52.502;13.488;2023-04-16T07:02:21;25.73;;;23.03;;
1376;SDS011;682;52.502;13.488;2023-04-16T07:04:51;27.47;;;24.57;;
1376;SDS011;682;52.502;13.488;2023-04-16T07:07:19;28.37;;;23.80;;
1376;SDS011;682;52.502;13.488;2023-04-16T07:09:47;25.47;;;22.87;;
1376;SDS011;682;52.502;13.488;2023-04-16T07:12:14;24.63;;;21.73;;
1376;SDS011;682;52.502;13.488;2023-04-16T07:14:41;24.67;;;21.97;;
1376;SDS011;682;52.502;13.488;2023-04-16T07:17:09;25.17;;;22.47;;
1376;SDS011;682;52.502;13.488;2023-04-16T07:19:36;22.90;;;20.57;;
1376;SDS011;682;52.502;13.488;2023-04-16T07:22:03;24.77;;;22.07;;
1376;SDS011;682;52.502;13.488;2023-04-16T07:24:30;23.80;;;21.47;;
1376;SDS011;682;52.502;13.488;2023-04-16T07:26:57;24.20;;;21.77;;
1376;SDS011;682;52.502;13.488;2023-04-16T07:29:25;24.70;;;22.20;;
1376;SDS011;682;52.502;13.488;2023-04-16T07:31:52;23.90;;;21.50;;
1376;SDS011;682;52.502;13.488;2023-04-16T07:34:21;22.40;;;20.10;;
1376;SDS011;682;52.502;13.488;2023-04-16T07:36:48;25.00;;;22.37;;
1376;SDS011;682;52.502;13.488;2023-04-16T07:39:15;23.80;;;21.23;;
1376;SDS011;682;52.502;13.488;2023-04-16T07:41:42;22.97;;;20.57;;
1376;SDS011;682;52.502;13.488;2023-04-16T07:44:10;23.93;;;21.53;;
1376;SDS011;682;52.502;13.488;2023-04-16T07:46:37;23.90;;;21.03;;
1376;SDS011;682;52.502;13.488;2023-04-16T07:49:05;23.30;;;20.80;;
1376;SDS011;682;52.502;13.488;2023-04-16T07:51:34;22.00;;;19.87;;
1376;SDS011;682;52.502;13.488;2023-04-16T07:54:01;21.23;;;19.00;;
1376;SDS011;682;52.502;13.488;2023-04-16T07:56:31;21.33;;;19.13;;
1376;SDS011;682;52.502;13.488;2023-04-16T07:58:59;23.90;;;21.70;;
1376;SDS011;682;52.502;13.488;2023-04-16T08:01:29;23.27;;;20.10;;
1376;SDS011;682;52.502;13.488;2023-04-16T08:03:56;24.30;;;21.77;;
1376;SDS011;682;52.502;13.488;2023-04-16T08:06:23;22.40;;;19.90;;
1376;SDS011;682;52.502;13.488;2023-04-16T08:08:52;22.63;;;20.23;;
1376;SDS011;682;52.502;13.488;2023-04-16T08:11:20;22.77;;;20.47;;
1376;SDS011;682;52.502;13.488;2023-04-16T08:13:47;24.07;;;21.50;;
1376;SDS011;682;52.502;13.488;2023-04-16T08:16:15;22.77;;;20.37;;
1376;SDS011;682;52.502;13.488;2023-04-16T08:18:46;24.13;;;21.57;;
1376;SDS011;682;52.502;13.488;2023-04-16T08:21:13;23.50;;;19.93;;
1376;SDS011;682;52.502;13.488;2023-04-16T08:23:44;24.97;;;21.87;;
1376;SDS011;682;52.502;13.488;2023-04-16T08:26:12;23.53;;;21.10;;
1376;SDS011;682;52.502;13.488;2023-04-16T08:28:44;23.60;;;21.10;;
1376;SDS011;682;52.502;13.488;2023-04-16T08:31:14;22.00;;;19.70;;
1376;SDS011;682;52.502;13.488;2023-04-16T08:33:43;19.60;;;17.73;;
1376;SDS011;682;52.502;13.488;2023-04-16T08:36:11;21.20;;;18.90;;
1376;SDS011;682;52.502;13.488;2023-04-16T08:38:47;20.40;;;18.37;;
1376;SDS011;682;52.502;13.488;2023-04-16T08:41:18;22.43;;;20.13;;
1376;SDS011;682;52.502;13.488;2023-04-16T08:43:48;22.20;;;19.70;;
1376;SDS011;682;52.502;13.488;2023-04-16T08:46:21;24.73;;;20.70;;
1376;SDS011;682;52.502;13.488;2023-04-16T08:48:52;22.20;;;20.00;;
1376;SDS011;682;52.502;13.488;2023-04-16T08:51:21;22.60;;;20.30;;
1376;SDS011;682;52.502;13.488;2023-04-16T08:53:51;21.90;;;19.53;;
1376;SDS011;682;52.502;13.488;2023-04-16T08:56:22;23.20;;;20.73;;
1376;SDS011;682;52.502;13.488;2023-04-16T08:58:50;22.50;;;20.20;;
1376;SDS011;682;52.502;13.488;2023-04-16T09:01:20;21.50;;;19.30;;
1376;SDS011;682;52.502;13.488;2023-04-16T09:03:48;23.47;;;20.43;;
1376;SDS011;682;52.502;13.488;2023-04-16T09:06:15;24.63;;;21.63;;
1376;SDS011;682;52.502;13.488;2023-04-16T09:08:42;24.70;;;21.27;;
1376;SDS011;682;52.502;13.488;2023-04-16T09:11:11;20.33;;;18.33;;
1376;SDS011;682;52.502;13.488;2023-04-16T09:13:40;23.17;;;20.87;;
1376;SDS011;682;52.502;13.488;2023-04-16T09:16:07;24.37;;;21.77;;
1376;SDS011;682;52.502;13.488;2023-04-16T09:18:36;22.67;;;20.27;;
1376;SDS011;682;52.502;13.488;2023-04-16T09:21:03;25.00;;;22.30;;
1376;SDS011;682;52.502;13.488;2023-04-16T09:23:34;24.07;;;21.47;;
1376;SDS011;682;52.502;13.488;2023-04-16T09:26:05;23.67;;;21.33;;
1376;SDS011;682;52.502;13.488;2023-04-16T09:28:41;24.83;;;22.33;;
1376;SDS011;682;52.502;13.488;2023-04-16T09:31:11;23.77;;;21.33;;
1376;SDS011;682;52.502;13.488;2023-04-16T09:33:39;22.80;;;18.97;;
1376;SDS011;682;52.502;13.488;2023-04-16T09:36:08;22.10;;;19.83;;
1376;SDS011;682;52.502;13.488;2023-04-16T09:38:45;20.53;;;18.43;;
1376;SDS011;682;52.502;13.488;2023-04-16T09:41:13;19.13;;;17.20;;
1376;SDS011;682;52.502;13.488;2023-04-16T09:43:42;18.70;;;16.90;;
1376;SDS011;682;52.502;13.488;2023-04-16T09:46:19;18.07;;;16.33;;
1376;SDS011;682;52.502;13.488;2023-04-16T09:48:50;20.20;;;18.23;;
1376;SDS011;682;52.502;13.488;2023-04-16T09:51:39;20.00;;;18.00;;
1376;SDS011;682;52.502;13.488;2023-04-16T09:54:22;19.57;;;17.43;;
1376;SDS011;682;52.502;13.488;2023-04-16T09:56:53;21.40;;;18.67;;
1376;SDS011;682;52.502;13.488;2023-04-16T09:59:24;20.47;;;18.37;;
1376;SDS011;682;52.502;13.488;2023-04-16T10:01:57;20.37;;;18.47;;
1376;SDS011;682;52.502;13.488;2023-04-16T10:04:25;22.03;;;19.80;;
1376;SDS011;682;52.502;13.488;2023-04-16T10:07:01;20.83;;;18.80;;
1376;SDS011;682;52.502;13.488;2023-04-16T10:09:30;20.27;;;18.33;;
1376;SDS011;682;52.502;13.488;2023-04-16T10:12:00;21.67;;;19.53;;
1376;SDS011;682;52.502;13.488;2023-04-16T10:14:29;22.50;;;20.23;;
1376;SDS011;682;52.502;13.488;2023-04-16T10:16:56;19.90;;;18.00;;
1376;SDS011;682;52.502;13.488;2023-04-16T10:19:36;22.20;;;20.13;;
1376;SDS011;682;52.502;13.488;2023-04-16T10:22:03;23.63;;;21.30;;
1376;SDS011;682;52.502;13.488;2023-04-16T10:24:31;21.57;;;19.47;;
1376;SDS011;682;52.502;13.488;2023-04-16T10:26:59;22.20;;;20.03;;
1376;SDS011;682;52.502;13.488;2023-04-16T10:29:27;42.23;;;37.87;;
1376;SDS011;682;52.502;13.488;2023-04-16T10:31:56;23.33;;;20.93;;
1376;SDS011;682;52.502;13.488;2023-04-16T10:34:25;24.20;;;21.80;;
1376;SDS011;682;52.502;13.488;2023-04-16T10:36:53;23.77;;;21.50;;
1376;SDS011;682;52.502;13.488;2023-04-16T10:39:21;23.53;;;21.13;;
1376;SDS011;682;52.502;13.488;2023-04-16T10:41:50;21.50;;;19.43;;
1376;SDS011;682;52.502;13.488;2023-04-16T10:44:35;20.47;;;18.37;;
1376;SDS011;682;52.502;13.488;2023-04-16T10:47:02;21.77;;;19.70;;
1376;SDS011;682;52.502;13.488;2023-04-16T10:49:38;20.23;;;18.33;;
1376;SDS011;682;52.502;13.488;2023-04-16T10:54:54;21.60;;;19.60;;
1376;SDS011;682;52.502;13.488;2023-04-16T10:57:24;27.90;;;25.30;;
1376;SDS011;682;52.502;13.488;2023-04-16T10:59:56;21.07;;;18.97;;
1376;SDS011;682;52.502;13.488;2023-04-16T11:02:24;20.70;;;18.90;;
1376;SDS011;682;52.502;13.488;2023-04-16T11:04:54;21.33;;;19.13;;
1376;SDS011;682;52.502;13.488;2023-04-16T11:07:31;20.60;;;18.60;;
1376;SDS011;682;52.502;13.488;2023-04-16T11:09:59;21.70;;;19.70;;
1376;SDS011;682;52.502;13.488;2023-04-16T11:12:32;20.60;;;18.60;;
1376;SDS011;682;52.502;13.488;2023-04-16T11:15:03;22.03;;;19.97;;
1376;SDS011;682;52.502;13.488;2023-04-16T11:17:32;21.50;;;19.33;;
1376;SDS011;682;52.502;13.488;2023-04-16T11:20:04;23.70;;;21.47;;
1376;SDS011;682;52.502;13.488;2023-04-16T11:22:35;20.60;;;18.53;;
1376;SDS011;682;52.502;13.488;2023-04-16T11:25:09;19.40;;;17.60;;
1376;SDS011;682;52.502;13.488;2023-04-16T11:27:36;19.43;;;17.53;;
1376;SDS011;682;52.502;13.488;2023-04-16T11:30:08;19.73;;;17.90;;
1376;SDS011;682;52.502;13.488;2023-04-16T11:32:36;19.00;;;17.30;;
1376;SDS011;682;52.502;13.488;2023-04-16T11:35:06;20.23;;;18.23;;
1376;SDS011;682;52.502;13.488;2023-04-16T11:37:39;20.67;;;18.77;;
1376;SDS011;682;52.502;13.488;2023-04-16T11:40:07;30.07;;;27.03;;
1376;SDS011;682;52.502;13.488;2023-04-16T11:42:35;20.63;;;18.63;;
1376;SDS011;682;52.502;13.488;2023-04-16T11:45:06;20.30;;;18.40;;
1376;SDS011;682;52.502;13.488;2023-04-16T11:47:41;22.47;;;20.20;;
1376;SDS011;682;52.502;13.488;2023-04-16T11:50:17;21.27;;;19.37;;
1376;SDS011;682;52.502;13.488;2023-04-16T11:52:46;25.33;;;22.77;;
1376;SDS011;682;52.502;13.488;2023-04-16T11:55:14;21.03;;;19.13;;
1376;SDS011;682;52.502;13.488;2023-04-16T11:57:41;20.43;;;18.67;;
1376;SDS011;682;52.502;13.488;2023-04-16T12:00:12;21.53;;;19.27;;
1376;SDS011;682;52.502;13.488;2023-04-16T12:02:40;19.43;;;17.67;;
1376;SDS011;682;52.502;13.488;2023-04-16T12:07:55;19.97;;;18.23;;
1376;SDS011;682;52.502;13.488;2023-04-16T12:10:25;21.70;;;19.70;;
1376;SDS011;682;52.502;13.488;2023-04-16T12:12:53;21.33;;;19.33;;
1376;SDS011;682;52.502;13.488;2023-04-16T12:15:24;19.83;;;18.13;;
1376;SDS011;682;52.502;13.488;2023-04-16T12:18:11;20.20;;;18.50;;
1376;SDS011;682;52.502;13.488;2023-04-16T12:20:38;19.00;;;17.20;;
1376;SDS011;682;52.502;13.488;2023-04-16T12:23:13;20.50;;;18.70;;
1376;SDS011;682;52.502;13.488;2023-04-16T12:25:48;19.50;;;17.80;;
1376;SDS011;682;52.502;13.488;2023-04-16T12:28:25;19.97;;;18.27;;
1376;SDS011;682;52.502;13.488;2023-04-16T12:30:57;20.17;;;18.47;;
1376;SDS011;682;52.502;13.488;2023-04-16T12:33:26;19.67;;;17.87;;
1376;SDS011;682;52.502;13.488;2023-04-16T12:35:55;19.03;;;17.50;;
1376;SDS011;682;52.502;13.488;2023-04-16T12:38:22;20.60;;;18.80;;
1376;SDS011;682;52.502;13.488;2023-04-16T12:40:51;18.20;;;16.70;;
1376;SDS011;682;52.502;13.488;2023-04-16T12:43:23;16.83;;;15.50;;
1376;SDS011;682;52.502;13.488;2023-04-16T12:45:50;19.17;;;17.40;;
1376;SDS011;682;52.502;13.488;2023-04-16T12:48:19;19.93;;;18.23;;
1376;SDS011;682;52.502;13.488;2023-04-16T12:50:47;19.90;;;18.13;;
1376;SDS011;682;52.502;13.488;2023-04-16T12:53:14;17.57;;;15.90;;
1376;SDS011;682;52.502;13.488;2023-04-16T12:55:41;16.83;;;15.33;;
1376;SDS011;682;52.502;13.488;2023-04-16T12:58:09;16.00;;;14.47;;
1376;SDS011;682;52.502;13.488;2023-04-16T13:00:36;16.60;;;15.10;;
1376;SDS011;682;52.502;13.488;2023-04-16T13:03:16;17.00;;;15.50;;
1376;SDS011;682;52.502;13.488;2023-04-16T13:05:46;16.43;;;14.97;;
1376;SDS011;682;52.502;13.488;2023-04-16T13:08:13;15.40;;;14.00;;
1376;SDS011;682;52.502;13.488;2023-04-16T13:10:40;15.20;;;13.90;;
1376;SDS011;682;52.502;13.488;2023-04-16T13:13:07;14.47;;;13.17;;
1376;SDS011;682;52.502;13.488;2023-04-16T13:15:34;14.70;;;13.30;;
1376;SDS011;682;52.502;13.488;2023-04-16T13:18:01;14.20;;;12.90;;
1376;SDS011;682;52.502;13.488;2023-04-16T13:20:36;13.60;;;12.40;;
1376;SDS011;682;52.502;13.488;2023-04-16T13:23:05;13.40;;;12.30;;
1376;SDS011;682;52.502;13.488;2023-04-16T13:25:32;15.53;;;14.13;;
1376;SDS011;682;52.502;13.488;2023-04-16T13:27:59;15.53;;;14.17;;
1376;SDS011;682;52.502;13.488;2023-04-16T13:30:28;15.23;;;13.93;;
1376;SDS011;682;52.502;13.488;2023-04-16T13:32:57;15.07;;;13.57;;
1376;SDS011;682;52.502;13.488;2023-04-16T13:35:24;15.73;;;13.60;;
1376;SDS011;682;52.502;13.488;2023-04-16T13:37:57;14.37;;;12.93;;
1376;SDS011;682;52.502;13.488;2023-04-16T13:40:27;15.60;;;14.30;;
1376;SDS011;682;52.502;13.488;2023-04-16T13:42:54;15.63;;;14.10;;
1376;SDS011;682;52.502;13.488;2023-04-16T13:45:21;14.60;;;13.30;;
1376;SDS011;682;52.502;13.488;2023-04-16T13:47:54;13.97;;;12.73;;
1376;SDS011;682;52.502;13.488;2023-04-16T13:50:22;14.03;;;12.73;;
1376;SDS011;682;52.502;13.488;2023-04-16T13:52:49;15.50;;;14.10;;
1376;SDS011;682;52.502;13.488;2023-04-16T13:55:17;15.93;;;14.43;;
1376;SDS011;682;52.502;13.488;2023-04-16T13:57:46;15.90;;;14.40;;
1376;SDS011;682;52.502;13.488;2023-04-16T14:00:14;17.20;;;15.77;;
1376;SDS011;682;52.502;13.488;2023-04-16T14:02:41;16.13;;;14.67;;
1376;SDS011;682;52.502;13.488;2023-04-16T14:05:09;16.13;;;14.73;;
1376;SDS011;682;52.502;13.488;2023-04-16T14:07:36;15.87;;;14.27;;
1376;SDS011;682;52.502;13.488;2023-04-16T14:10:04;15.90;;;14.47;;
1376;SDS011;682;52.502;13.488;2023-04-16T14:12:33;15.90;;;14.43;;
1376;SDS011;682;52.502;13.488;2023-04-16T14:15:02;15.43;;;14.13;;
1376;SDS011;682;52.502;13.488;2023-04-16T14:17:30;15.40;;;14.00;;
1376;SDS011;682;52.502;13.488;2023-04-16T14:19:59;15.10;;;13.80;;
1376;SDS011;682;52.502;13.488;2023-04-16T14:22:26;13.70;;;12.60;;
1376;SDS011;682;52.502;13.488;2023-04-16T14:24:54;13.40;;;12.20;;
1376;SDS011;682;52.502;13.488;2023-04-16T14:27:21;13.73;;;12.53;;
1376;SDS011;682;52.502;13.488;2023-04-16T14:29:48;13.57;;;12.27;;
1376;SDS011;682;52.502;13.488;2023-04-16T14:32:17;13.93;;;12.73;;
1376;SDS011;682;52.502;13.488;2023-04-16T14:34:45;12.60;;;11.60;;
1376;SDS011;682;52.502;13.488;2023-04-16T14:37:12;12.90;;;11.70;;
1376;SDS011;682;52.502;13.488;2023-04-16T14:39:41;12.17;;;11.13;;
1376;SDS011;682;52.502;13.488;2023-04-16T14:42:08;13.83;;;12.47;;
1376;SDS011;682;52.502;13.488;2023-04-16T14:44:35;12.03;;;10.93;;
1376;SDS011;682;52.502;13.488;2023-04-16T14:47:03;13.83;;;12.63;;
1376;SDS011;682;52.502;13.488;2023-04-16T14:52:17;13.57;;;12.27;;
1376;SDS011;682;52.502;13.488;2023-04-16T14:54:47;12.17;;;11.10;;
1376;SDS011;682;52.502;13.488;2023-04-16T14:57:16;12.33;;;11.20;;
1376;SDS011;682;52.502;13.488;2023-04-16T14:59:43;13.53;;;12.33;;
1376;SDS011;682;52.502;13.488;2023-04-16T15:02:10;13.63;;;12.53;;
1376;SDS011;682;52.502;13.488;2023-04-16T15:04:37;12.90;;;11.70;;
1376;SDS011;682;52.502;13.488;2023-04-16T15:07:08;13.97;;;12.60;;
1376;SDS011;682;52.502;13.488;2023-04-16T15:09:35;12.90;;;11.80;;
1376;SDS011;682;52.502;13.488;2023-04-16T15:12:03;13.40;;;12.30;;
1376;SDS011;682;52.502;13.488;2023-04-16T15:14:30;12.00;;;11.00;;
1376;SDS011;682;52.502;13.488;2023-04-16T15:16:58;12.40;;;11.40;;
1376;SDS011;682;52.502;13.488;2023-04-16T15:19:25;12.20;;;11.00;;
1376;SDS011;682;52.502;13.488;2023-04-16T15:21:52;13.77;;;12.47;;
1376;SDS011;682;52.502;13.488;2023-04-16T15:24:23;13.17;;;11.87;;
1376;SDS011;682;52.502;13.488;2023-04-16T15:26:57;12.47;;;11.47;;
1376;SDS011;682;52.502;13.488;2023-04-16T15:29:26;12.43;;;11.43;;
1376;SDS011;682;52.502;13.488;2023-04-16T15:31:55;12.80;;;11.70;;
1376;SDS011;682;52.502;13.488;2023-04-16T15:34:25;12.93;;;11.77;;
1376;SDS011;682;52.502;13.488;2023-04-16T15:36:53;13.43;;;12.13;;
1376;SDS011;682;52.502;13.488;2023-04-16T15:39:20;13.27;;;12.17;;
1376;SDS011;682;52.502;13.488;2023-04-16T15:41:48;12.67;;;11.57;;